createdAt,value
2018-09-11T00:01:12.987Z,101204
2018-09-11T00:03:41.843Z,101200
2018-09-11T00:06:10.675Z,101199
2018-09-11T00:08:40.255Z,101198
2018-09-11T00:11:09.094Z,101196
2018-09-11T00:13:37.934Z,101197
2018-09-11T00:16:06.771Z,101200
2018-09-11T00:18:35.617Z,101206
2018-09-11T00:21:04.471Z,101204
2018-09-11T00:23:33.317Z,101205
2018-09-11T00:26:02.911Z,101209
2018-09-11T00:28:31.734Z,101207
2018-09-11T00:31:00.578Z,101208
2018-09-11T00:33:29.413Z,101211
2018-09-11T00:35:58.350Z,101205
2018-09-11T00:38:27.101Z,101210
2018-09-11T00:40:55.929Z,101214
2018-09-11T00:43:24.779Z,101220
2018-09-11T00:45:53.628Z,101210
2018-09-11T00:48:22.482Z,101211
2018-09-11T00:50:51.322Z,101206
2018-09-11T00:53:20.166Z,101209
2018-09-11T00:55:49.018Z,101213
2018-09-11T00:58:17.862Z,101210
2018-09-11T01:00:46.692Z,101220
2018-09-11T01:03:15.541Z,101215
2018-09-11T01:05:44.389Z,101208
2018-09-11T01:08:13.218Z,101224
2018-09-11T01:10:42.086Z,101225
2018-09-11T01:13:10.922Z,101234
2018-09-11T01:15:40.508Z,101228
2018-09-11T01:18:10.096Z,101236
2018-09-11T01:20:38.930Z,101229
2018-09-11T01:23:07.780Z,101232
2018-09-11T01:25:36.618Z,101234
2018-09-11T01:28:05.463Z,101233
2018-09-11T01:30:34.312Z,101244
2018-09-11T01:33:03.156Z,101247
2018-09-11T01:35:32.731Z,101243
2018-09-11T01:38:01.562Z,101242
2018-09-11T01:40:31.146Z,101239
2018-09-11T01:42:59.987Z,101237
2018-09-11T01:45:28.830Z,101239
2018-09-11T01:47:58.411Z,101239
2018-09-11T01:50:27.247Z,101240
2018-09-11T01:52:56.080Z,101227
2018-09-11T01:55:24.914Z,101237
2018-09-11T01:57:54.496Z,101233
2018-09-11T02:00:23.387Z,101243
2018-09-11T02:02:52.232Z,101235
2018-09-11T02:05:21.065Z,101234
2018-09-11T02:07:49.906Z,101234
2018-09-11T02:10:18.755Z,101241
2018-09-11T02:12:47.600Z,101246
2018-09-11T02:15:16.439Z,101242
2018-09-11T02:17:45.289Z,101252
2018-09-11T02:20:14.136Z,101254
2018-09-11T02:22:43.721Z,101258
2018-09-11T02:25:13.142Z,101265
2018-09-11T02:27:42.726Z,101261
2018-09-11T02:30:12.313Z,101263
2018-09-11T02:32:41.152Z,101263
2018-09-11T02:35:10.741Z,101265
2018-09-11T02:37:40.328Z,101264
2018-09-11T02:40:09.754Z,101272
2018-09-11T02:42:39.327Z,101274
2018-09-11T02:45:08.188Z,101273
2018-09-11T02:47:37.055Z,101270
2018-09-11T02:50:05.905Z,101276
2018-09-11T02:52:34.742Z,101276
2018-09-11T02:55:03.589Z,101273
2018-09-11T02:57:33.018Z,101272
2018-09-11T03:00:01.862Z,101275
2018-09-11T03:02:30.700Z,101271
2018-09-11T03:04:59.539Z,101273
2018-09-11T03:07:28.412Z,101281
2018-09-11T03:09:57.247Z,101283
2018-09-11T03:12:26.104Z,101283
2018-09-11T03:14:54.930Z,101288
2018-09-11T03:17:24.515Z,101293
2018-09-11T03:19:53.356Z,101282
2018-09-11T03:22:22.194Z,101291
2018-09-11T03:24:51.040Z,101292
2018-09-11T03:27:19.871Z,101286
2018-09-11T03:29:48.724Z,101286
2018-09-11T03:32:17.556Z,101285
2018-09-11T03:34:46.393Z,101290
2018-09-11T03:37:15.228Z,101287
2018-09-11T03:39:44.077Z,101284
2018-09-11T03:42:12.922Z,101283
2018-09-11T03:44:42.521Z,101289
2018-09-11T03:47:11.343Z,101297
2018-09-11T03:49:40.183Z,101290
2018-09-11T03:52:09.023Z,101287
2018-09-11T03:54:37.872Z,101298
2018-09-11T03:57:06.716Z,101302
2018-09-11T03:59:35.559Z,101291
2018-09-11T04:02:04.411Z,101291
2018-09-11T04:04:33.252Z,101288
2018-09-11T04:07:02.832Z,101287
2018-09-11T04:09:31.673Z,101287
2018-09-11T04:12:00.529Z,101293
2018-09-11T04:14:29.379Z,101288
2018-09-11T04:16:58.227Z,101289
2018-09-11T04:19:27.068Z,101291
2018-09-11T04:21:55.905Z,101295
2018-09-11T04:24:25.492Z,101306
2018-09-11T04:26:55.076Z,101304
2018-09-11T04:29:23.908Z,101306
2018-09-11T04:31:53.488Z,101301
2018-09-11T04:34:22.375Z,101307
2018-09-11T04:36:51.230Z,101292
2018-09-11T04:39:20.076Z,101292
2018-09-11T04:41:48.912Z,101315
2018-09-11T04:44:17.751Z,101303
2018-09-11T04:46:46.608Z,101302
2018-09-11T04:49:15.453Z,101303
2018-09-11T04:51:45.030Z,101310
2018-09-11T04:54:13.873Z,101306
2018-09-11T04:56:42.707Z,101309
2018-09-11T04:59:11.557Z,101318
2018-09-11T05:01:40.400Z,101323
2018-09-11T05:04:09.276Z,101319
2018-09-11T05:06:38.128Z,101325
2018-09-11T05:09:06.964Z,101327
2018-09-11T05:11:35.807Z,101330
2018-09-11T05:14:04.680Z,101326
2018-09-11T05:16:33.521Z,101335
2018-09-11T05:19:02.372Z,101336
2018-09-11T05:21:31.936Z,101340
2018-09-11T05:24:00.946Z,101333
2018-09-11T05:26:29.797Z,101332
2018-09-11T05:28:58.636Z,101340
2018-09-11T05:31:27.480Z,101335
2018-09-11T05:33:56.321Z,101332
2018-09-11T05:36:25.899Z,101334
2018-09-11T05:38:54.825Z,101334
2018-09-11T05:41:23.785Z,101328
2018-09-11T05:43:52.682Z,101334
2018-09-11T05:46:21.518Z,101329
2018-09-11T05:48:50.374Z,101332
2018-09-11T05:51:19.951Z,101329
2018-09-11T05:53:48.806Z,101337
2018-09-11T05:56:17.644Z,101341
2018-09-11T05:58:46.491Z,101347
2018-09-11T06:01:15.336Z,101345
2018-09-11T06:03:44.183Z,101342
2018-09-11T06:06:13.016Z,101350
2018-09-11T06:08:42.612Z,101357
2018-09-11T06:11:11.454Z,101358
2018-09-11T06:13:40.389Z,101359
2018-09-11T06:16:09.245Z,101364
2018-09-11T06:18:38.121Z,101362
2018-09-11T06:21:07.710Z,101360
2018-09-11T06:23:36.557Z,101360
2018-09-11T06:26:05.399Z,101367
2018-09-11T06:28:34.244Z,101370
2018-09-11T06:31:03.273Z,101361
2018-09-11T06:33:32.102Z,101358
2018-09-11T06:36:00.960Z,101358
2018-09-11T06:38:29.806Z,101349
2018-09-11T06:40:58.687Z,101348
2018-09-11T06:43:27.497Z,101357
2018-09-11T06:45:56.339Z,101356
2018-09-11T06:48:25.919Z,101350
2018-09-11T06:50:54.767Z,101358
2018-09-11T06:53:23.612Z,101358
2018-09-11T06:55:53.195Z,101368
2018-09-11T06:58:22.031Z,101359
2018-09-11T07:00:50.876Z,101366
2018-09-11T07:03:19.716Z,101365
2018-09-11T07:05:48.564Z,101372
2018-09-11T07:08:17.405Z,101375
2018-09-11T07:10:46.251Z,101375
2018-09-11T07:13:15.864Z,101376
2018-09-11T07:15:44.684Z,101379
2018-09-11T07:18:13.522Z,101373
2018-09-11T07:20:42.384Z,101377
2018-09-11T07:23:11.223Z,101369
2018-09-11T07:25:40.803Z,101370
2018-09-11T07:28:10.390Z,101378
2018-09-11T07:30:39.223Z,101376
2018-09-11T07:33:08.814Z,101380
2018-09-11T07:35:37.663Z,101380
2018-09-11T07:38:06.516Z,101377
2018-09-11T07:40:36.085Z,101377
2018-09-11T07:43:04.922Z,101374
2018-09-11T07:45:33.767Z,101376
2018-09-11T07:48:02.573Z,101382
2018-09-11T07:50:31.417Z,101388
2018-09-11T07:53:00.280Z,101387
2018-09-11T07:55:29.082Z,101391
2018-09-11T07:57:57.911Z,101386
2018-09-11T08:00:26.738Z,101386
2018-09-11T08:02:55.608Z,101383
2018-09-11T08:05:24.409Z,101387
2018-09-11T08:07:53.251Z,101388
2018-09-11T08:10:22.079Z,101387
2018-09-11T08:12:51.666Z,101386
2018-09-11T08:15:20.502Z,101387
2018-09-11T08:17:49.343Z,101389
2018-09-11T08:20:18.154Z,101392
2018-09-11T08:22:47.731Z,101401
2018-09-11T08:25:16.552Z,101397
2018-09-11T08:27:46.133Z,101396
2018-09-11T08:30:14.960Z,101397
2018-09-11T08:32:43.816Z,101396
2018-09-11T08:35:13.399Z,101389
2018-09-11T08:37:42.248Z,101393
2018-09-11T08:40:11.092Z,101387
2018-09-11T08:42:39.933Z,101404
2018-09-11T08:45:08.777Z,101387
2018-09-11T08:47:37.628Z,101386
2018-09-11T08:50:06.475Z,101387
2018-09-11T08:52:36.167Z,101382
2018-09-11T08:55:04.893Z,101388
2018-09-11T08:57:33.733Z,101388
2018-09-11T09:00:02.575Z,101387
2018-09-11T09:02:31.404Z,101387
2018-09-11T09:05:00.233Z,101386
2018-09-11T09:07:29.823Z,101392
2018-09-11T09:09:58.666Z,101391
2018-09-11T09:12:27.493Z,101383
2018-09-11T09:14:56.355Z,101378
2018-09-11T09:17:25.196Z,101393
2018-09-11T09:19:54.789Z,101386
2018-09-11T09:22:23.626Z,101389
2018-09-11T09:24:52.459Z,101386
2018-09-11T09:27:21.325Z,101388
2018-09-11T09:29:50.156Z,101386
2018-09-11T09:32:19.757Z,101385
2018-09-11T09:34:48.585Z,101381
2018-09-11T09:37:18.150Z,101377
2018-09-11T09:39:46.995Z,101374
2018-09-11T09:42:15.834Z,101371
2018-09-11T09:44:45.408Z,101370
2018-09-11T09:47:14.244Z,101366
2018-09-11T09:49:43.092Z,101370
2018-09-11T09:52:11.923Z,101363
2018-09-11T09:54:40.759Z,101371
2018-09-11T09:57:09.609Z,101366
2018-09-11T09:59:38.443Z,101362
2018-09-11T10:02:07.736Z,101360
2018-09-11T10:04:36.679Z,101362
2018-09-11T10:07:06.138Z,101361
2018-09-11T10:09:35.029Z,101344
2018-09-11T10:12:03.831Z,101345
2018-09-11T10:14:32.677Z,101352
2018-09-11T10:17:01.516Z,101343
2018-09-11T10:19:30.361Z,101336
2018-09-11T10:21:59.186Z,101337
2018-09-11T10:24:28.050Z,101329
2018-09-11T10:26:57.154Z,101330
2018-09-11T10:29:26.463Z,101331
2018-09-11T10:31:55.288Z,101329
2018-09-11T10:34:24.128Z,101369
2018-09-11T10:36:52.970Z,101324
2018-09-11T10:39:21.853Z,101323
2018-09-11T10:41:50.636Z,101320
2018-09-11T10:44:20.218Z,101315
2018-09-11T10:46:49.054Z,101314
2018-09-11T10:49:17.900Z,101313
2018-09-11T10:51:46.759Z,101316
2018-09-11T10:54:15.579Z,101318
2018-09-11T10:56:44.435Z,101321
2018-09-11T10:59:13.264Z,101304
2018-09-11T11:01:42.115Z,101308
2018-09-11T11:04:10.944Z,101305
2018-09-11T11:06:39.781Z,101305
2018-09-11T11:09:08.639Z,101301
2018-09-11T11:11:37.454Z,101297
2018-09-11T11:14:06.350Z,101300
2018-09-11T11:16:35.137Z,101302
2018-09-11T11:19:03.963Z,101300
2018-09-11T11:21:32.787Z,101298
2018-09-11T11:24:01.635Z,101294
2018-09-11T11:26:30.465Z,101289
2018-09-11T11:29:00.049Z,101284
2018-09-11T11:31:28.900Z,101288
2018-09-11T11:33:57.736Z,101278
2018-09-11T11:36:27.423Z,101278
2018-09-11T11:38:56.160Z,101268
2018-09-11T11:41:25.002Z,101266
2018-09-11T11:43:53.845Z,101272
2018-09-11T11:46:22.679Z,101282
2018-09-11T11:48:51.518Z,101276
2018-09-11T11:51:20.362Z,101272
2018-09-11T11:53:49.213Z,101274
2018-09-11T11:56:18.053Z,101267
2018-09-11T11:58:46.909Z,101258
2018-09-11T12:01:15.750Z,101262
2018-09-11T12:03:44.608Z,101270
2018-09-11T12:06:13.463Z,101265
2018-09-11T12:08:42.302Z,101259
2018-09-11T12:11:11.892Z,101259
2018-09-11T12:13:40.769Z,101247
2018-09-11T12:16:09.669Z,101250
2018-09-11T12:18:38.466Z,101247
2018-09-11T12:21:07.298Z,101238
2018-09-11T12:23:36.130Z,101246
2018-09-11T12:26:04.991Z,101246
2018-09-11T12:28:33.804Z,101251
2018-09-11T12:31:02.652Z,101242
2018-09-11T12:33:31.485Z,101242
2018-09-11T12:36:00.324Z,101242
2018-09-11T12:38:29.169Z,101235
2018-09-11T12:40:58.008Z,101231
2018-09-11T12:43:26.854Z,101220
2018-09-11T12:45:55.751Z,101230
2018-09-11T12:48:24.823Z,101231
2018-09-11T12:50:53.351Z,101224
2018-09-11T12:53:22.184Z,101222
2018-09-11T12:55:51.025Z,101227
2018-09-11T12:58:19.868Z,101218
2018-09-11T13:00:48.704Z,101223
2018-09-11T13:03:17.546Z,101217
2018-09-11T13:05:46.387Z,101224
2018-09-11T13:08:15.223Z,101214
2018-09-11T13:10:44.065Z,101211
2018-09-11T13:13:12.900Z,101199
2018-09-11T13:15:41.756Z,101201
2018-09-11T13:18:10.584Z,101214
2018-09-11T13:20:39.415Z,101194
2018-09-11T13:23:08.252Z,101193
2018-09-11T13:25:37.084Z,101187
2018-09-11T13:28:06.655Z,101197
2018-09-11T13:30:35.533Z,101207
2018-09-11T13:33:04.358Z,101204
2018-09-11T13:35:33.216Z,101200
2018-09-11T13:38:02.051Z,101201
2018-09-11T13:40:30.892Z,101205
2018-09-11T13:42:59.750Z,101205
2018-09-11T13:45:28.582Z,101187
2018-09-11T13:47:57.472Z,101187
2018-09-11T13:50:26.270Z,101180
2018-09-11T13:52:55.133Z,101180
2018-09-11T13:55:23.938Z,101189
2018-09-11T13:57:52.768Z,101182
2018-09-11T14:00:21.598Z,101173
2018-09-11T14:02:50.431Z,101185
2018-09-11T14:05:19.275Z,101177
2018-09-11T14:07:48.120Z,101177
2018-09-11T14:10:17.684Z,101183
2018-09-11T14:12:46.518Z,101170
2018-09-11T14:15:15.366Z,101174
2018-09-11T14:17:44.193Z,101167
2018-09-11T14:20:13.031Z,101173
2018-09-11T14:22:41.867Z,101169
2018-09-11T14:25:10.722Z,101158
2018-09-11T14:27:39.564Z,101163
2018-09-11T14:30:08.401Z,101162
2018-09-11T14:32:37.226Z,101161
2018-09-11T14:35:06.081Z,101156
2018-09-11T14:37:34.942Z,101149
2018-09-11T14:40:03.786Z,101146
2018-09-11T14:42:33.377Z,101144
2018-09-11T14:45:02.217Z,101139
2018-09-11T14:47:31.074Z,101131
2018-09-11T14:50:00.661Z,101141
2018-09-11T14:52:29.523Z,101141
2018-09-11T14:54:58.315Z,101139
2018-09-11T14:57:27.213Z,101141
2018-09-11T14:59:55.992Z,101146
2018-09-11T15:02:24.828Z,101139
2018-09-11T15:04:53.679Z,101144
2018-09-11T15:07:22.502Z,101139
2018-09-11T15:09:52.081Z,101126
2018-09-11T15:12:20.915Z,101138
2018-09-11T15:14:49.755Z,101130
2018-09-11T15:17:18.582Z,101137
2018-09-11T15:19:48.170Z,101126
2018-09-11T15:22:17.017Z,101122
2018-09-11T15:24:45.848Z,101124
2018-09-11T15:27:14.723Z,101124
2018-09-11T15:29:43.601Z,101123
2018-09-11T15:32:12.412Z,101125
2018-09-11T15:34:41.254Z,101124
2018-09-11T15:37:10.097Z,101119
2018-09-11T15:39:38.950Z,101113
2018-09-11T15:42:07.790Z,101110
2018-09-11T15:44:36.616Z,101106
2018-09-11T15:47:05.472Z,101110
2018-09-11T15:49:34.289Z,101109
2018-09-11T15:52:03.117Z,101095
2018-09-11T15:54:31.989Z,101096
2018-09-11T15:57:00.024Z,101103
2018-09-11T15:59:28.856Z,101096
2018-09-11T16:01:57.757Z,101093
2018-09-11T16:04:26.559Z,101100
2018-09-11T16:06:55.466Z,101099
2018-09-11T16:09:24.986Z,101099
2018-09-11T16:11:53.830Z,101091
2018-09-11T16:14:22.668Z,101096
2018-09-11T16:16:51.500Z,101086
2018-09-11T16:19:20.351Z,101091
2018-09-11T16:21:49.206Z,101088
2018-09-11T16:24:18.035Z,101087
2018-09-11T16:26:46.878Z,101081
2018-09-11T16:29:15.722Z,101083
2018-09-11T16:31:45.296Z,101089
2018-09-11T16:34:14.204Z,101088
2018-09-11T16:36:42.971Z,101088
2018-09-11T16:39:11.813Z,101081
2018-09-11T16:41:40.644Z,101077
2018-09-11T16:44:09.475Z,101080
2018-09-11T16:46:38.343Z,101078
2018-09-11T16:49:07.167Z,101084
2018-09-11T16:51:36.002Z,101084
2018-09-11T16:54:04.834Z,101081
2018-09-11T16:56:33.690Z,101082
2018-09-11T16:59:02.525Z,101074
2018-09-11T17:01:31.393Z,101078
2018-09-11T17:04:01.083Z,101080
2018-09-11T17:06:29.808Z,101082
2018-09-11T17:08:58.649Z,101079
2018-09-11T17:11:27.486Z,101071
2018-09-11T17:13:56.349Z,101077
2018-09-11T17:16:25.934Z,101074
2018-09-11T17:18:54.771Z,101069
2018-09-11T17:21:23.608Z,101073
2018-09-11T17:24:05.168Z,101068
2018-09-11T17:26:34.016Z,101078
2018-09-11T17:29:03.627Z,101081
2018-09-11T17:31:33.205Z,101075
2018-09-11T17:34:02.063Z,101082
2018-09-11T17:36:30.905Z,101082
2018-09-11T17:38:59.762Z,101074
2018-09-11T17:41:28.612Z,101081
2018-09-11T17:43:57.559Z,101080
2018-09-11T17:46:26.415Z,101082
2018-09-11T17:48:55.289Z,101071
2018-09-11T17:51:24.823Z,101083
2018-09-11T17:53:53.659Z,101082
2018-09-11T17:56:57.665Z,101075
2018-09-11T17:59:26.483Z,101080
2018-09-11T18:01:55.329Z,101079
2018-09-11T18:04:24.489Z,101099
2018-09-11T18:06:53.214Z,101079
2018-09-11T18:09:22.051Z,101085
2018-09-11T18:11:50.875Z,101084
2018-09-11T18:14:19.723Z,101084
2018-09-11T18:16:49.301Z,101084
2018-09-11T18:19:18.155Z,101095
2018-09-11T18:21:46.990Z,101092
2018-09-11T18:24:16.567Z,101090
2018-09-11T18:26:46.001Z,101084
2018-09-11T18:29:15.611Z,101089
2018-09-11T18:31:45.208Z,101086
2018-09-11T18:34:14.773Z,101091
2018-09-11T18:36:43.682Z,101091
2018-09-11T18:39:12.480Z,101088
2018-09-11T18:41:41.338Z,101091
2018-09-11T18:44:10.173Z,101096
2018-09-11T18:46:39.021Z,101092
2018-09-11T18:49:07.855Z,101093
2018-09-11T18:51:37.497Z,101091
2018-09-11T18:54:07.048Z,101095
2018-09-11T18:56:35.928Z,101089
2018-09-11T18:59:04.786Z,101094
2018-09-11T19:01:33.560Z,101103
2018-09-11T19:04:02.491Z,101102
2018-09-11T19:06:31.331Z,101106
2018-09-11T19:09:00.167Z,101107
2018-09-11T19:11:29.015Z,101106
2018-09-11T19:13:57.851Z,101110
2018-09-11T19:16:26.696Z,101113
2018-09-11T19:18:55.543Z,101111
2018-09-11T19:21:24.377Z,101120
2018-09-11T19:23:53.221Z,101120
2018-09-11T19:26:22.088Z,101116
2018-09-11T19:28:51.011Z,101117
2018-09-11T19:31:19.745Z,101110
2018-09-11T19:33:48.638Z,101110
2018-09-11T19:36:18.162Z,101116
2018-09-11T19:38:47.009Z,101111
2018-09-11T19:41:15.858Z,101114
2018-09-11T19:43:44.692Z,101114
2018-09-11T19:46:13.533Z,101115
2018-09-11T19:48:42.363Z,101114
2018-09-11T19:51:11.208Z,101112
2018-09-11T19:53:40.041Z,101117
2018-09-11T19:56:08.928Z,101113
2018-09-11T19:58:38.531Z,101116
2018-09-11T20:01:07.389Z,101116
2018-09-11T20:03:36.203Z,101117
2018-09-11T20:06:05.026Z,101112
2018-09-11T20:08:33.867Z,101115
2018-09-11T20:11:02.712Z,101118
2018-09-11T20:13:31.551Z,101122
2018-09-11T20:16:00.393Z,101116
2018-09-11T20:18:29.223Z,101118
2018-09-11T20:20:58.062Z,101128
2018-09-11T20:23:26.901Z,101123
2018-09-11T20:25:55.739Z,101124
2018-09-11T20:28:24.591Z,101126
2018-09-11T20:30:53.442Z,101129
2018-09-11T20:33:22.280Z,101120
2018-09-11T20:35:51.120Z,101125
2018-09-11T20:38:19.970Z,101124
2018-09-11T20:40:49.681Z,101125
2018-09-11T20:43:18.398Z,101130
2018-09-11T20:45:47.232Z,101127
2018-09-11T20:48:16.078Z,101134
2018-09-11T20:50:45.454Z,101130
2018-09-11T20:53:14.291Z,101134
2018-09-11T20:55:43.135Z,101137
2018-09-11T20:58:12.742Z,101129
2018-09-11T21:00:41.551Z,101141
2018-09-11T21:03:10.380Z,101139
2018-09-11T21:05:39.220Z,101137
2018-09-11T21:08:08.092Z,101134
2018-09-11T21:10:36.942Z,101129
2018-09-11T21:13:06.165Z,101135
2018-09-11T21:15:35.018Z,101130
2018-09-11T21:18:03.866Z,101133
2018-09-11T21:20:32.714Z,101140
2018-09-11T21:23:01.550Z,101141
2018-09-11T21:25:30.402Z,101152
2018-09-11T21:27:59.227Z,101154
2018-09-11T21:30:28.229Z,101142
2018-09-11T21:32:57.104Z,101148
2018-09-11T21:35:25.965Z,101153
2018-09-11T21:37:54.820Z,101152
2018-09-11T21:40:23.682Z,101155
2018-09-11T21:42:52.522Z,101151
2018-09-11T21:45:21.356Z,101152
2018-09-11T21:47:50.195Z,101145
2018-09-11T21:50:19.852Z,101144
2018-09-11T21:52:48.672Z,101147
2018-09-11T21:55:17.554Z,101152
2018-09-11T21:57:46.387Z,101148
2018-09-11T22:00:15.276Z,101141
2018-09-11T22:02:44.073Z,101149
2018-09-11T22:05:13.649Z,101144
2018-09-11T22:07:42.489Z,101155
2018-09-11T22:10:11.327Z,101151
2018-09-11T22:12:40.745Z,101152
2018-09-11T22:15:10.338Z,101159
2018-09-11T22:17:39.177Z,101157
2018-09-11T22:20:08.023Z,101145
2018-09-11T22:22:36.874Z,101149
2018-09-11T22:25:05.709Z,101141
2018-09-11T22:27:35.493Z,101146
2018-09-11T22:30:04.332Z,101138
2018-09-11T22:32:33.173Z,101140
2018-09-11T22:35:02.025Z,101140
2018-09-11T22:37:30.840Z,101134
2018-09-11T22:39:59.691Z,101143
2018-09-11T22:42:28.527Z,101142
2018-09-11T22:44:57.352Z,101147
2018-09-11T22:47:26.920Z,101151
2018-09-11T22:49:55.760Z,101148
2018-09-11T22:52:24.595Z,101144
2018-09-11T22:54:53.423Z,101148
2018-09-11T22:57:22.259Z,101148
2018-09-11T22:59:51.100Z,101138
2018-09-11T23:02:20.682Z,101136
2018-09-11T23:04:49.537Z,101134
2018-09-11T23:07:18.370Z,101134
2018-09-11T23:09:47.218Z,101143
2018-09-11T23:12:16.054Z,101139
2018-09-11T23:14:45.474Z,101142
2018-09-11T23:17:14.315Z,101142
2018-09-11T23:19:43.149Z,101137
2018-09-11T23:22:12.732Z,101135
2018-09-11T23:24:42.444Z,101137
2018-09-11T23:27:11.007Z,101136
2018-09-11T23:29:39.854Z,101134
2018-09-11T23:32:09.427Z,101130
2018-09-11T23:34:38.270Z,101128
2018-09-11T23:37:07.099Z,101136
2018-09-11T23:39:35.951Z,101131
2018-09-11T23:42:04.783Z,101124
2018-09-11T23:44:33.622Z,101110
2018-09-11T23:47:02.441Z,101121
2018-09-11T23:49:31.350Z,101111
2018-09-11T23:52:00.197Z,101111
2018-09-11T23:54:29.028Z,101109
2018-09-11T23:56:57.858Z,101116
2018-09-11T23:59:26.695Z,101108
